Time;durP1;ratioP1;P1;durP2;ratioP2;P2;SDS_P1;SDS_P2;PMS_P1;PMS_P2;Temp;Humidity;BMP_temperature;BMP_pressure;BME280_temperature;BME280_humidity;BME280_pressure;Samples;Min_cycle;Max_cycle;Signal;HPM_P1;HPM_P2
2022/09/17 01:11:15;;;;;;;17.80;2.15;;;;;;;19.50;100.00;99092.47;5105170;23;20042;-86
2022/09/17 01:29:04;;;;;;;8.27;1.25;;;;;;;19.21;100.00;99055.34;4820080;26;20061;-87
2022/09/17 01:32:15;;;;;;;8.88;1.60;;;;;;;19.21;100.00;99066.06;5037687;28;20061;-83
2022/09/17 01:35:11;;;;;;;13.48;2.15;;;;;;;19.24;100.00;99073.63;5034107;28;20098;-85
2022/09/17 01:38:27;;;;;;;14.50;1.30;;;;;;;19.19;100.00;99078.97;5033016;28;20042;-82
2022/09/17 01:41:29;;;;;;;11.05;1.77;;;;;;;19.24;100.00;99087.06;4942580;29;20044;-84
2022/09/17 01:44:33;;;;;;;7.40;1.27;;;;;;;19.22;100.00;99078.44;4954947;29;20190;-83
2022/09/17 01:50:23;;;;;;;8.07;1.75;;;;;;;19.17;100.00;99081.88;5350218;23;20054;-84
2022/09/17 01:53:19;;;;;;;8.57;1.42;;;;;;;19.32;100.00;99083.94;5027529;28;20053;-83
2022/09/17 01:55:55;;;;;;;8.85;1.27;;;;;;;19.19;100.00;99071.69;5035036;28;20505;-85
2022/09/17 01:58:40;;;;;;;8.73;1.13;;;;;;;19.17;100.00;99086.44;5010908;28;20057;-84
2022/09/17 02:01:40;;;;;;;8.52;2.05;;;;;;;19.17;100.00;99092.63;5019216;28;20030;-81
2022/09/17 02:04:40;;;;;;;9.02;1.48;;;;;;;19.17;100.00;99095.31;5032013;28;20050;-84
2022/09/17 02:07:24;;;;;;;11.02;1.25;;;;;;;19.09;100.00;99099.25;5030456;28;20072;-86
2022/09/17 02:10:16;;;;;;;6.22;1.20;;;;;;;19.07;100.00;99090.66;5020426;28;20040;-85
2022/09/17 02:13:07;;;;;;;7.38;1.10;;;;;;;18.98;100.00;99100.22;5035098;28;20036;-84
2022/09/17 02:15:46;;;;;;;7.03;1.00;;;;;;;19.21;100.00;99103.69;5035106;28;20065;-85
2022/09/17 02:19:01;;;;;;;3.25;1.00;;;;;;;19.18;100.00;99096.94;5000973;28;20058;-85
2022/09/17 02:21:59;;;;;;;7.68;1.40;;;;;;;19.03;100.00;99086.00;5029986;28;20053;-83
2022/09/17 02:24:56;;;;;;;12.32;1.77;;;;;;;18.96;100.00;99080.03;5035380;28;20049;-83
2022/09/17 02:27:59;;;;;;;6.72;1.10;;;;;;;18.75;100.00;99089.72;4995023;28;20061;-84
2022/09/17 02:31:03;;;;;;;16.13;1.67;;;;;;;18.74;100.00;99092.66;4992877;28;20050;-83
2022/09/17 02:34:21;;;;;;;8.85;1.45;;;;;;;18.62;100.00;99084.75;4993939;28;20035;-83
2022/09/17 02:37:26;;;;;;;12.88;1.20;;;;;;;18.73;100.00;99073.06;4978000;28;20042;-84
2022/09/17 02:39:59;;;;;;;11.93;1.40;;;;;;;18.57;100.00;99066.69;4960924;28;20034;-84
2022/09/17 02:43:52;;;;;;;5.97;0.85;;;;;;;18.52;100.00;99068.50;4979435;28;20022;-84
2022/09/17 02:46:49;;;;;;;6.57;1.20;;;;;;;18.52;100.00;99063.13;5032898;28;20042;-84
2022/09/17 02:49:26;;;;;;;12.85;1.88;;;;;;;18.26;100.00;99045.84;5035591;28;20057;-85
2022/09/17 02:52:10;;;;;;;7.35;1.60;;;;;;;18.03;100.00;99044.19;5035492;28;20041;-82
2022/09/17 02:55:17;;;;;;;8.95;1.42;;;;;;;18.17;100.00;99065.28;5034249;28;20042;-84
2022/09/17 02:58:15;;;;;;;11.90;1.92;;;;;;;17.89;100.00;99088.50;5034600;28;20093;-83
2022/09/17 03:00:48;;;;;;;12.27;2.03;;;;;;;17.92;100.00;99084.50;5034419;28;20106;-84
2022/09/17 03:03:34;;;;;;;13.40;2.60;;;;;;;18.09;100.00;99066.53;5031870;28;20093;-85
2022/09/17 03:06:15;;;;;;;7.10;2.25;;;;;;;17.84;100.00;99053.56;5026465;28;20056;-84
2022/09/17 03:08:42;;;;;;;8.07;2.42;;;;;;;17.74;100.00;99055.25;5033001;28;20041;-83
2022/09/17 03:11:12;;;;;;;9.40;2.92;;;;;;;17.48;100.00;99070.88;5000697;28;20042;-85
2022/09/17 03:13:42;;;;;;;10.93;2.90;;;;;;;17.29;100.00;99080.19;5032018;28;20053;-84
2022/09/17 03:16:25;;;;;;;7.95;2.72;;;;;;;17.29;100.00;99074.03;5016342;28;20034;-83
2022/09/17 03:18:54;;;;;;;10.48;3.63;;;;;;;17.28;100.00;99054.47;5019852;28;20022;-82
2022/09/17 03:21:55;;;;;;;8.88;3.47;;;;;;;17.25;100.00;99062.16;5031527;28;20048;-85
2022/09/17 03:24:31;;;;;;;10.18;3.58;;;;;;;17.37;100.00;99071.75;5026795;28;20037;-82
2022/09/17 03:27:12;;;;;;;9.93;4.10;;;;;;;17.40;100.00;99075.84;5033798;28;20014;-83
2022/09/17 03:29:55;;;;;;;11.27;4.00;;;;;;;17.43;100.00;99065.44;5034332;28;20034;-84
2022/09/17 03:32:27;;;;;;;13.02;4.50;;;;;;;17.23;100.00;99045.53;5034560;28;20061;-83
2022/09/17 03:35:04;;;;;;;7.78;4.57;;;;;;;17.25;100.00;99030.03;5021798;28;20050;-83
2022/09/17 03:37:40;;;;;;;7.60;3.60;;;;;;;17.22;100.00;99030.53;5027040;28;20061;-82
2022/09/17 03:40:14;;;;;;;6.35;3.55;;;;;;;17.02;100.00;99030.97;5034134;28;20029;-81
2022/09/17 03:42:48;;;;;;;8.70;3.38;;;;;;;16.99;100.00;99042.97;5033011;28;20076;-83
2022/09/17 03:45:27;;;;;;;7.10;3.25;;;;;;;17.25;100.00;99056.81;5017423;28;20061;-82
2022/09/17 03:48:12;;;;;;;6.25;2.60;;;;;;;17.36;100.00;99074.69;5037074;28;20106;-81
2022/09/17 03:50:38;;;;;;;8.25;2.75;;;;;;;17.27;100.00;99081.47;5004854;28;20050;-83
2022/09/17 03:53:08;;;;;;;7.03;2.60;;;;;;;17.39;100.00;99083.06;5035512;28;20038;-82
2022/09/17 03:55:50;;;;;;;5.80;2.42;;;;;;;17.33;100.00;99085.88;5033365;28;20097;-83
2022/09/17 03:58:16;;;;;;;4.15;2.03;;;;;;;17.27;100.00;99082.28;5009531;28;20085;-82
2022/09/17 04:00:45;;;;;;;10.10;3.00;;;;;;;17.23;100.00;99075.00;5038194;28;20021;-81
2022/09/17 04:03:13;;;;;;;5.60;1.77;;;;;;;17.23;100.00;99086.53;5036680;28;20046;-83
2022/09/17 04:05:39;;;;;;;8.57;2.50;;;;;;;17.18;100.00;99088.28;5036473;28;20034;-84
2022/09/17 04:08:35;;;;;;;9.02;3.08;;;;;;;17.11;100.00;99093.78;5036530;28;20121;-84
2022/09/17 04:11:27;;;;;;;8.85;3.10;;;;;;;17.04;100.00;99099.25;5049930;28;20034;-81
2022/09/17 04:14:05;;;;;;;8.48;3.03;;;;;;;17.18;100.00;99099.81;5003460;28;20117;-83
2022/09/17 04:16:46;;;;;;;5.80;2.28;;;;;;;17.11;100.00;99103.66;5051555;28;20069;-85
2022/09/17 04:19:17;;;;;;;6.13;1.92;;;;;;;17.19;100.00;99103.28;5034799;28;20042;-81
2022/09/17 04:21:44;;;;;;;;;;;;;;;17.01;100.00;99099.75;5033601;28;20069;-82
2022/09/17 04:24:34;;;;;;;2.72;1.63;;;;;;;17.11;100.00;99099.13;5037135;28;19937;-84
2022/09/17 04:31:16;;;;;;;1.97;0.80;;;;;;;16.79;100.00;99138.91;5039536;28;20045;-86
2022/09/17 04:34:29;;;;;;;2.03;1.30;;;;;;;16.87;100.00;99159.94;5039883;28;20025;-85
2022/09/17 04:40:59;;;;;;;2.58;0.90;;;;;;;16.86;100.00;99177.06;5039352;28;20065;-85
2022/09/17 04:44:22;;;;;;;3.95;0.80;;;;;;;16.72;100.00;99174.84;5038321;28;20080;-84
2022/09/17 04:47:10;;;;;;;1.88;0.70;;;;;;;16.66;100.00;99181.97;5037457;28;20033;-84
2022/09/17 04:49:52;;;;;;;6.55;1.10;;;;;;;16.72;100.00;99186.38;5037255;28;20022;-84
2022/09/17 04:52:47;;;;;;;3.22;0.77;;;;;;;16.57;100.00;99214.66;5013272;28;20034;-85
2022/09/17 04:55:17;;;;;;;0.80;0.50;;;;;;;16.75;100.00;99218.00;5027045;28;20038;-84
2022/09/17 04:58:16;;;;;;;5.47;1.05;;;;;;;16.64;100.00;99215.34;5023306;28;20104;-80
2022/09/17 05:00:45;;;;;;;2.15;0.60;;;;;;;16.69;100.00;99221.63;5036707;28;20042;-81
2022/09/17 05:03:17;;;;;;;1.02;0.65;;;;;;;16.67;100.00;99228.28;5035326;28;20054;-84
2022/09/17 05:05:52;;;;;;;2.63;0.75;;;;;;;16.54;100.00;99245.31;5035797;28;20042;-86
2022/09/17 05:08:21;;;;;;;5.75;1.10;;;;;;;16.28;100.00;99254.56;5034485;28;20050;-84
2022/09/17 05:10:53;;;;;;;3.70;0.93;;;;;;;16.19;100.00;99236.44;5011940;23;20074;-83
2022/09/17 05:13:20;;;;;;;3.90;0.82;;;;;;;16.21;100.00;99247.69;4998729;28;20054;-80
2022/09/17 05:15:48;;;;;;;3.30;1.02;;;;;;;16.21;100.00;99255.72;5000643;28;20046;-81
2022/09/17 05:18:15;;;;;;;1.67;0.70;;;;;;;16.16;100.00;99267.13;5015215;28;20038;-79
2022/09/17 05:20:42;;;;;;;2.83;0.80;;;;;;;15.82;100.00;99244.56;5012349;28;20099;-81
2022/09/17 05:23:08;;;;;;;5.95;0.40;;;;;;;15.85;100.00;99262.00;5025170;28;20047;-82
2022/09/17 05:25:36;;;;;;;3.80;0.47;;;;;;;15.66;100.00;99266.59;5007331;28;20070;-82
2022/09/17 05:28:06;;;;;;;1.35;0.65;;;;;;;15.69;100.00;99274.13;5011891;28;20057;-83
2022/09/17 05:30:33;;;;;;;1.38;0.50;;;;;;;15.77;100.00;99273.84;5009128;28;20050;-79
2022/09/17 05:33:03;;;;;;;3.38;0.60;;;;;;;15.82;100.00;99279.31;5008885;28;20070;-82
2022/09/17 05:35:37;;;;;;;1.05;0.43;;;;;;;15.95;100.00;99276.44;5012214;28;20057;-84
2022/09/17 05:38:08;;;;;;;0.88;0.60;;;;;;;15.87;100.00;99268.78;5000361;28;20049;-81
2022/09/17 05:40:48;;;;;;;2.45;0.73;;;;;;;15.74;100.00;99263.56;5012244;28;20022;-81
2022/09/17 05:43:14;;;;;;;2.70;0.52;;;;;;;15.76;100.00;99256.16;5013277;28;20066;-82
2022/09/17 05:45:47;;;;;;;3.47;0.75;;;;;;;15.75;100.00;99261.72;5013596;28;20053;-82
2022/09/17 05:48:16;;;;;;;2.15;0.75;;;;;;;15.68;100.00;99275.16;4996191;28;20042;-82
2022/09/17 05:50:54;;;;;;;3.40;0.70;;;;;;;15.70;100.00;99272.28;5009083;28;20073;-81
2022/09/17 05:53:20;;;;;;;4.35;0.90;;;;;;;15.68;100.00;99288.53;5009701;28;20023;-79
2022/09/17 05:56:08;;;;;;;1.23;0.80;;;;;;;15.64;100.00;99274.00;5014728;28;20042;-83
2022/09/17 05:58:48;;;;;;;2.70;0.88;;;;;;;15.48;100.00;99269.25;5014198;28;20074;-86
2022/09/17 06:01:38;;;;;;;0.93;0.75;;;;;;;15.47;100.00;99267.63;5013181;28;20026;-83
2022/09/17 06:04:26;;;;;;;1.88;0.63;;;;;;;15.47;100.00;99262.28;5013625;28;20500;-85
2022/09/17 06:07:08;;;;;;;1.20;0.70;;;;;;;15.31;100.00;99263.69;4972817;28;20047;-86
2022/09/17 06:09:42;;;;;;;3.63;0.90;;;;;;;15.32;100.00;99245.81;4993890;28;20027;-84
2022/09/17 06:12:34;;;;;;;6.65;0.70;;;;;;;15.36;100.00;99263.00;4981453;28;20054;-84
2022/09/17 06:15:22;;;;;;;1.88;0.70;;;;;;;15.39;100.00;99270.56;4991508;28;20103;-83
2022/09/17 06:17:51;;;;;;;0.90;0.55;;;;;;;15.47;100.00;99280.97;4987369;28;20031;-85
2022/09/17 06:20:50;;;;;;;1.98;0.60;;;;;;;15.55;100.00;99291.38;4980964;28;20097;-84
2022/09/17 06:23:19;;;;;;;3.50;0.73;;;;;;;15.67;100.00;99307.47;4994114;28;20046;-84
2022/09/17 06:26:28;;;;;;;1.63;0.60;;;;;;;15.76;100.00;99325.63;4979124;28;20027;-86
2022/09/17 06:29:27;;;;;;;1.23;0.52;;;;;;;15.78;100.00;99336.91;5016262;28;20066;-84
2022/09/17 06:32:25;;;;;;;2.85;0.70;;;;;;;15.81;100.00;99339.13;5014758;28;20077;-85
2022/09/17 06:35:14;;;;;;;2.85;0.80;;;;;;;15.88;100.00;99358.56;5030484;28;20093;-85
2022/09/17 06:38:50;;;;;;;2.47;0.95;;;;;;;15.79;100.00;99386.63;5016194;28;20040;-85
2022/09/17 06:42:04;;;;;;;0.77;0.50;;;;;;;15.88;100.00;99390.63;5015255;28;20086;-82
2022/09/17 06:45:07;;;;;;;0.40;0.38;;;;;;;15.66;100.00;99396.63;4983051;28;20109;-87
2022/09/17 06:47:43;;;;;;;;;;;;;;;15.73;100.00;99411.56;5001195;28;20038;-86
2022/09/17 06:50:22;;;;;;;1.10;0.70;;;;;;;15.67;100.00;99415.13;5014512;28;19918;-85
2022/09/17 06:53:05;;;;;;;1.13;0.50;;;;;;;15.58;100.00;99424.44;5011688;28;20049;-85
2022/09/17 06:55:42;;;;;;;2.63;0.43;;;;;;;15.50;100.00;99443.44;4996533;28;20054;-84
2022/09/17 06:58:23;;;;;;;3.78;0.80;;;;;;;15.44;100.00;99449.63;5002276;28;20410;-85
2022/09/17 07:01:18;;;;;;;0.70;0.50;;;;;;;15.29;100.00;99452.63;4986804;28;20050;-86
2022/09/17 07:03:50;;;;;;;0.80;0.50;;;;;;;15.16;100.00;99435.91;5008475;28;20034;-82
2022/09/17 07:13:25;;;;;;;1.83;0.60;;;;;;;14.92;100.00;99457.00;5112235;23;20054;-82
2022/09/17 07:16:26;;;;;;;1.95;0.68;;;;;;;15.05;100.00;99457.97;5034829;28;20049;-83
2022/09/17 07:18:53;;;;;;;2.25;0.45;;;;;;;14.95;100.00;99464.59;5050321;28;20058;-81
2022/09/17 07:21:36;;;;;;;3.63;0.60;;;;;;;14.99;100.00;99463.13;5031832;28;20116;-81
2022/09/17 07:24:39;;;;;;;1.80;0.75;;;;;;;14.93;100.00;99468.50;5037658;28;20038;-81
2022/09/17 07:27:20;;;;;;;0.70;0.50;;;;;;;14.95;100.00;99488.59;5039385;28;20064;-84
2022/09/17 07:29:58;;;;;;;1.08;0.57;;;;;;;14.74;100.00;99496.94;5036915;28;20053;-84
2022/09/17 07:32:30;;;;;;;0.80;0.50;;;;;;;14.74;100.00;99512.97;5023210;28;20038;-85
2022/09/17 07:34:58;;;;;;;0.93;0.40;;;;;;;14.68;100.00;99513.78;5076946;23;20065;-82
2022/09/17 07:38:08;;;;;;;0.80;0.60;;;;;;;14.62;100.00;99522.63;5036353;28;20054;-85
2022/09/17 07:41:19;;;;;;;1.67;0.77;;;;;;;14.59;100.00;99579.06;5033569;28;20054;-82
2022/09/17 07:44:02;;;;;;;1.38;0.60;;;;;;;14.26;100.00;99557.00;5026068;28;20407;-80
2022/09/17 07:46:28;;;;;;;2.85;0.82;;;;;;;14.14;100.00;99569.31;5025551;28;20074;-80
2022/09/17 07:48:54;;;;;;;6.20;0.80;;;;;;;14.22;100.00;99598.44;5016079;28;20042;-80
2022/09/17 07:51:23;;;;;;;1.75;0.80;;;;;;;14.10;100.00;99594.75;5022300;28;20146;-80
2022/09/17 07:53:54;;;;;;;1.30;0.75;;;;;;;14.01;100.00;99596.00;4973815;28;20035;-81
2022/09/17 07:56:20;;;;;;;4.57;0.80;;;;;;;13.91;100.00;99605.22;5004864;28;20034;-81
2022/09/17 07:58:46;;;;;;;3.30;0.90;;;;;;;13.80;100.00;99600.50;5023555;28;20069;-78
2022/09/17 08:01:21;;;;;;;1.38;0.60;;;;;;;13.84;100.00;99575.13;5008882;28;20061;-80
2022/09/17 08:03:50;;;;;;;3.28;0.77;;;;;;;13.80;100.00;99573.06;5009514;28;20078;-78
2022/09/17 08:06:24;;;;;;;2.13;0.90;;;;;;;13.80;100.00;99576.53;4996360;28;20038;-79
2022/09/17 08:11:52;;;;;;;1.35;0.70;;;;;;;13.71;100.00;99607.06;4998250;28;20046;-82
2022/09/17 08:14:25;;;;;;;2.95;0.60;;;;;;;13.80;100.00;99627.16;5033434;28;20030;-82
2022/09/17 08:16:58;;;;;;;4.22;0.73;;;;;;;13.71;100.00;99639.03;5025709;28;20083;-80
2022/09/17 08:19:24;;;;;;;2.25;0.80;;;;;;;13.65;100.00;99666.47;5021691;28;20180;-80
2022/09/17 08:21:52;;;;;;;3.33;0.60;;;;;;;13.55;100.00;99676.69;5020011;28;20041;-81
2022/09/17 08:24:21;;;;;;;0.93;0.45;;;;;;;13.54;100.00;99680.38;5031769;28;20080;-82
2022/09/17 08:26:47;;;;;;;3.92;0.93;;;;;;;13.54;100.00;99663.56;5039992;28;20117;-81
2022/09/17 08:29:12;;;;;;;1.88;0.77;;;;;;;13.59;100.00;99677.91;5024529;28;20053;-81
2022/09/17 08:31:38;;;;;;;2.15;0.60;;;;;;;13.52;100.00;99677.09;5028604;28;20038;-81
2022/09/17 08:34:13;;;;;;;3.05;0.90;;;;;;;13.76;100.00;99689.81;5014678;28;20041;-81
2022/09/17 08:36:41;;;;;;;0.95;0.77;;;;;;;13.81;100.00;99703.38;5031069;28;20033;-80
2022/09/17 08:39:07;;;;;;;2.65;1.00;;;;;;;13.89;100.00;99711.16;5021784;28;20043;-80
2022/09/17 08:41:41;;;;;;;3.40;1.55;;;;;;;13.88;100.00;99712.19;5024788;28;20034;-79
2022/09/17 08:44:41;;;;;;;2.75;0.90;;;;;;;13.81;100.00;99723.84;5035887;28;20022;-83
2022/09/17 08:47:48;;;;;;;5.22;1.00;;;;;;;13.95;100.00;99717.53;5032247;28;20046;-83
2022/09/17 08:50:40;;;;;;;2.65;1.00;;;;;;;13.94;100.00;99710.56;5028374;28;20042;-81
2022/09/17 08:53:37;;;;;;;3.85;1.05;;;;;;;13.77;100.00;99734.09;5031534;28;20053;-79
2022/09/17 08:56:30;;;;;;;3.30;1.05;;;;;;;13.93;100.00;99776.31;5003794;28;20041;-82
2022/09/17 08:59:20;;;;;;;2.78;1.00;;;;;;;14.04;100.00;99804.22;5083350;22;20137;-88
2022/09/17 09:02:11;;;;;;;2.83;1.00;;;;;;;14.10;100.00;99808.75;5006758;28;20051;-86
2022/09/17 09:04:47;;;;;;;3.03;1.23;;;;;;;13.86;100.00;99804.78;5006258;28;20061;-87
2022/09/17 09:07:25;;;;;;;3.47;0.90;;;;;;;13.64;100.00;99773.16;5006438;28;20042;-87
2022/09/17 09:10:03;;;;;;;4.22;1.02;;;;;;;13.47;100.00;99746.06;5020543;28;20128;-88
2022/09/17 09:12:35;;;;;;;2.72;1.00;;;;;;;13.32;100.00;99729.44;5018379;28;20030;-86
2022/09/17 09:15:06;;;;;;;2.17;0.80;;;;;;;13.25;100.00;99696.66;4996081;28;20042;-89
2022/09/17 09:17:40;;;;;;;7.53;4.65;;;;;;;13.07;100.00;99717.63;4995226;28;20057;-88
2022/09/17 09:20:18;;;;;;;1.05;0.70;;;;;;;13.02;100.00;99747.50;5009092;28;20057;-89
2022/09/17 09:22:50;;;;;;;0.82;0.60;;;;;;;12.92;100.00;99745.19;5017275;28;20081;-90
2022/09/17 09:28:59;;;;;;;2.15;0.50;;;;;;;12.97;100.00;99768.53;1851374;23;20050;-89
2022/09/17 09:31:52;;;;;;;1.00;0.50;;;;;;;12.87;100.00;99798.13;5002869;28;20119;-89
2022/09/17 09:34:18;;;;;;;1.85;0.70;;;;;;;12.92;100.00;99776.28;5013054;28;20099;-89
2022/09/17 09:36:44;;;;;;;2.15;0.70;;;;;;;12.90;100.00;99768.50;5023978;28;20037;-87
2022/09/17 09:39:19;;;;;;;2.22;0.60;;;;;;;12.89;100.00;99788.09;5018491;28;20128;-88
2022/09/17 09:41:50;;;;;;;0.68;0.40;;;;;;;12.81;100.00;99811.38;5013959;28;20045;-91
2022/09/17 09:44:37;;;;;;;3.35;0.80;;;;;;;12.92;100.00;99817.00;5013420;28;20046;-79
2022/09/17 09:47:25;;;;;;;1.83;0.50;;;;;;;13.14;100.00;99846.22;5016578;28;20042;-85
2022/09/17 09:50:30;;;;;;;0.98;0.55;;;;;;;13.15;100.00;99850.53;5029163;28;20041;-82
2022/09/17 09:53:03;;;;;;;1.73;0.70;;;;;;;13.20;100.00;99848.09;5036289;28;20033;-80
2022/09/17 09:55:42;;;;;;;4.05;0.47;;;;;;;13.21;100.00;99839.09;5019060;28;20030;-82
2022/09/17 09:58:46;;;;;;;0.40;0.40;;;;;;;13.20;100.00;99864.06;5035199;28;20041;-80
2022/09/17 10:01:56;;;;;;;0.73;0.50;;;;;;;13.13;100.00;99831.25;5036699;28;20026;-82
2022/09/17 10:04:47;;;;;;;0.90;0.60;;;;;;;13.16;100.00;99841.50;5024728;28;20038;-82
2022/09/17 10:07:16;;;;;;;1.35;0.50;;;;;;;13.30;100.00;99832.59;5025862;28;20085;-84
2022/09/17 10:09:53;;;;;;;1.65;0.50;;;;;;;13.24;100.00;99833.38;5037380;28;20038;-82
2022/09/17 10:12:44;;;;;;;0.70;0.50;;;;;;;13.29;100.00;99823.00;5104596;23;20057;-81
2022/09/17 10:15:35;;;;;;;2.72;0.50;;;;;;;13.35;100.00;99830.19;5034573;28;20037;-80
2022/09/17 10:18:25;;;;;;;0.60;0.43;;;;;;;13.28;100.00;99837.31;5029825;28;20038;-84
2022/09/17 10:21:14;;;;;;;2.22;0.40;;;;;;;13.40;100.00;99838.38;5024124;28;20042;-84
2022/09/17 10:24:39;;;;;;;1.58;0.80;;;;;;;13.52;100.00;99823.53;5028824;28;20060;-83
2022/09/17 10:27:35;;;;;;;0.40;0.40;;;;;;;13.71;100.00;99830.75;5034822;28;20042;-83
2022/09/17 10:30:17;;;;;;;1.95;0.32;;;;;;;14.05;100.00;99831.69;5028985;28;20073;-82
2022/09/17 10:33:29;;;;;;;1.48;0.30;;;;;;;14.21;100.00;99832.13;5036843;28;20057;-83
2022/09/17 10:45:02;;;;;;;0.55;0.30;;;;;;;18.69;100.00;99842.28;5030542;26;20293;-80
2022/09/17 10:47:52;;;;;;;0.85;0.40;;;;;;;18.10;100.00;99836.97;4976247;28;20039;-82
2022/09/17 10:53:46;;;;;;;1.52;0.40;;;;;;;18.68;100.00;99837.94;5090680;23;19927;-81
2022/09/17 10:56:41;;;;;;;0.88;0.30;;;;;;;19.14;100.00;99844.41;4999546;28;20045;-82
2022/09/17 10:59:39;;;;;;;1.38;0.30;;;;;;;19.49;100.00;99858.63;5073409;23;20053;-78
2022/09/17 11:02:40;;;;;;;0.20;0.20;;;;;;;18.53;100.00;99850.97;5034196;28;20033;-81
2022/09/17 11:05:47;;;;;;;1.90;0.80;;;;;;;17.66;100.00;99855.03;5035957;28;20099;-80
2022/09/17 11:25:04;;;;;;;0.40;0.20;;;;;;;22.43;81.48;99838.00;5268564;23;20041;-79
2022/09/17 13:41:05;;;;;;;0.85;0.28;;;;;;;18.46;63.00;99826.09;5016515;28;20054;-82
2022/09/17 13:44:35;;;;;;;0.28;0.28;;;;;;;18.53;60.54;99832.19;4995652;28;20061;-83
2022/09/17 13:48:46;;;;;;;0.20;0.20;;;;;;;18.36;62.04;99841.94;4971391;28;20063;-81
2022/09/17 13:51:30;;;;;;;0.20;0.20;;;;;;;18.70;61.75;99843.91;4897906;29;20419;-81
2022/09/17 14:02:17;;;;;;;0.43;0.30;;;;;;;18.44;64.13;99838.91;5482502;23;20052;-81
2022/09/17 14:06:20;;;;;;;0.30;0.20;;;;;;;18.34;61.66;99839.47;5034179;28;20124;-80
2022/09/17 14:09:34;;;;;;;0.20;0.20;;;;;;;18.41;64.20;99831.31;4969988;28;20028;-81
2022/09/17 14:13:01;;;;;;;0.55;0.30;;;;;;;18.52;64.58;99841.31;5030710;28;20069;-80
2022/09/17 14:16:02;;;;;;;0.32;0.20;;;;;;;18.48;60.58;99840.09;4986300;28;20049;-82
2022/09/17 14:25:10;;;;;;;0.20;0.20;;;;;;;18.59;61.19;99828.59;4142515;22;20050;-82
2022/09/17 14:34:58;;;;;;;0.13;0.13;;;;;;;18.45;58.83;99840.56;4552312;26;20057;-84
2022/09/17 14:38:02;;;;;;;0.63;0.30;;;;;;;18.48;58.37;99835.53;5043553;28;20037;-85
2022/09/17 14:40:51;;;;;;;0.13;0.13;;;;;;;18.70;57.22;99838.53;5026629;28;20052;-86
2022/09/17 14:46:36;;;;;;;0.30;0.22;;;;;;;18.60;62.66;99832.91;5044708;23;20038;-87
2022/09/17 14:52:52;;;;;;;0.38;0.20;;;;;;;18.57;64.29;99828.00;5083652;23;20057;-83
2022/09/17 14:55:56;;;;;;;0.30;0.28;;;;;;;18.77;62.82;99822.31;5033821;28;20042;-86
2022/09/17 15:01:46;;;;;;;0.20;0.20;;;;;;;18.67;63.37;99833.63;5058312;23;20041;-83
2022/09/17 15:04:31;;;;;;;0.25;0.20;;;;;;;18.74;64.74;99828.13;5042201;28;20049;-81
2022/09/17 15:07:30;;;;;;;0.45;0.20;;;;;;;18.63;64.18;99831.66;5042399;28;20025;-84
2022/09/17 15:10:25;;;;;;;0.50;0.20;;;;;;;18.71;64.42;99834.81;5040048;28;20041;-82
2022/09/17 15:13:22;;;;;;;0.45;0.30;;;;;;;18.81;64.74;99829.69;5038829;28;20124;-82
2022/09/17 15:16:02;;;;;;;0.55;0.20;;;;;;;18.88;63.78;99830.38;5040348;28;20125;-82
2022/09/17 15:19:20;;;;;;;0.30;0.20;;;;;;;18.95;64.31;99836.47;5033587;28;20050;-82
2022/09/17 15:22:28;;;;;;;1.63;0.40;;;;;;;18.58;67.70;99827.78;5046051;28;20045;-82
2022/09/17 15:25:47;;;;;;;0.32;0.30;;;;;;;18.65;65.62;99835.72;5045891;28;20096;-82
2022/09/17 15:45:19;;;;;;;0.52;0.30;;;;;;;18.53;69.75;99832.19;4886578;22;20050;-80
2022/09/17 15:50:51;;;;;;;1.27;0.30;;;;;;;18.54;69.24;99836.50;5049596;23;20049;-82
2022/09/17 15:53:34;;;;;;;2.67;0.30;;;;;;;18.41;68.42;99839.38;4990861;28;20053;-82
2022/09/17 15:57:05;;;;;;;1.02;0.50;;;;;;;18.67;67.69;99839.00;5026065;28;20038;-82
2022/09/17 15:59:36;;;;;;;1.95;0.50;;;;;;;18.72;69.50;99844.50;5033886;28;20037;-81
2022/09/17 16:03:02;;;;;;;1.58;0.40;;;;;;;18.59;70.63;99847.41;5027824;28;20046;-83
2022/09/17 16:09:12;;;;;;;4.05;2.25;;;;;;;18.29;72.02;99851.94;5632058;22;20145;-82
2022/09/17 17:45:33;;;;;;;0.87;0.40;;;;;;;17.68;78.39;99906.53;5745582;23;20101;-84
2022/09/17 17:48:42;;;;;;;1.45;0.80;;;;;;;17.34;82.40;99904.38;5019294;28;20030;-88
2022/09/17 17:51:32;;;;;;;5.25;0.90;;;;;;;17.27;84.24;99911.66;5059152;22;20036;-82
2022/09/17 17:55:01;;;;;;;1.13;0.57;;;;;;;17.02;86.25;99904.47;5019742;28;20050;-84
2022/09/17 17:57:47;;;;;;;1.00;0.60;;;;;;;17.10;86.75;99899.88;5018590;28;20053;-87
2022/09/17 18:12:01;;;;;;;2.88;0.75;;;;;;;16.60;94.89;99928.47;4603236;23;20054;-84
2022/09/17 18:39:29;;;;;;;2.17;1.00;;;;;;;16.29;100.00;99942.59;5316254;22;20034;-85
2022/09/17 18:42:46;;;;;;;0.98;0.68;;;;;;;15.97;100.00;99945.16;4536366;26;20046;-82
2022/09/17 18:46:03;;;;;;;3.53;1.50;;;;;;;15.89;100.00;99950.75;5036460;28;20094;-83
2022/09/17 18:51:32;;;;;;;1.83;0.60;;;;;;;15.70;100.00;99962.31;5039267;23;20049;-89
2022/09/17 18:53:58;;;;;;;1.58;0.73;;;;;;;15.48;100.00;99964.41;5032646;28;20044;-88
2022/09/17 18:56:29;;;;;;;7.97;0.98;;;;;;;15.46;100.00;99970.94;5016102;28;20030;-88
2022/09/17 18:58:56;;;;;;;1.98;0.90;;;;;;;15.46;100.00;99973.63;5018211;28;20072;-88
2022/09/17 19:01:25;;;;;;;4.63;1.10;;;;;;;15.44;100.00;99984.50;5018979;28;20030;-89
2022/09/17 19:03:52;;;;;;;6.43;1.00;;;;;;;15.45;100.00;99971.97;5037850;28;20025;-90
2022/09/17 19:06:27;;;;;;;1.67;0.90;;;;;;;15.55;100.00;99983.09;5035511;28;20393;-88
2022/09/17 19:08:54;;;;;;;5.35;1.30;;;;;;;15.55;100.00;99987.59;5029487;28;20091;-89
2022/09/17 19:11:53;;;;;;;3.72;1.08;;;;;;;15.59;100.00;99986.16;5028267;28;20487;-90
2022/09/17 19:14:45;;;;;;;2.25;1.00;;;;;;;15.67;100.00;99989.47;5043518;28;20033;-91
2022/09/17 19:17:32;;;;;;;2.80;0.85;;;;;;;15.57;100.00;99981.03;5046127;28;20044;-88
2022/09/17 19:20:04;;;;;;;3.53;1.02;;;;;;;15.60;100.00;99985.97;5039069;28;20501;-88
2022/09/17 19:22:39;;;;;;;3.25;1.40;;;;;;;15.44;100.00;99983.69;5048379;28;20038;-90
2022/09/17 19:25:23;;;;;;;2.28;1.20;;;;;;;15.34;100.00;99989.47;5032978;28;20045;-89
2022/09/17 19:28:19;;;;;;;4.60;1.58;;;;;;;15.26;100.00;99999.50;5050291;28;20503;-88
2022/09/17 19:30:45;;;;;;;7.97;3.25;;;;;;;15.20;100.00;99992.31;5044898;28;20018;-90
2022/09/17 19:33:17;;;;;;;2.65;1.40;;;;;;;15.22;100.00;99990.25;5025878;28;20050;-89
2022/09/17 19:35:45;;;;;;;3.90;1.83;;;;;;;15.16;100.00;99993.75;5022291;28;20042;-89
2022/09/17 19:38:11;;;;;;;3.95;1.02;;;;;;;15.30;100.00;99992.72;5025049;28;20072;-91
2022/09/17 19:40:40;;;;;;;4.35;1.77;;;;;;;15.16;100.00;100007.09;5027920;28;20102;-89
2022/09/17 19:43:07;;;;;;;3.58;0.93;;;;;;;14.91;100.00;100007.66;5031307;28;20018;-89
2022/09/17 19:45:39;;;;;;;4.53;2.15;;;;;;;14.88;100.00;100016.06;5025084;28;20136;-89
2022/09/17 19:48:06;;;;;;;5.22;2.70;;;;;;;15.07;100.00;100016.34;5040142;28;20029;-88
2022/09/17 19:50:32;;;;;;;3.45;1.10;;;;;;;15.13;100.00;100008.34;5043201;28;20101;-87
2022/09/17 19:52:58;;;;;;;1.65;0.88;;;;;;;14.96;100.00;100013.22;5029338;28;20543;-89
2022/09/17 19:55:23;;;;;;;2.80;1.30;;;;;;;14.82;100.00;100016.06;5038993;28;20069;-88
2022/09/17 19:57:49;;;;;;;1.98;0.82;;;;;;;14.73;100.00;100020.78;5035037;28;20507;-90
2022/09/17 20:00:18;;;;;;;6.30;1.30;;;;;;;14.64;100.00;100024.66;5037879;28;20046;-90
2022/09/17 20:02:43;;;;;;;2.83;0.88;;;;;;;14.62;100.00;100026.69;5036380;28;20562;-91
2022/09/17 20:05:09;;;;;;;2.20;0.70;;;;;;;14.47;100.00;100028.69;5010507;28;20042;-93
2022/09/17 20:07:35;;;;;;;1.33;0.75;;;;;;;14.52;100.00;100018.22;5059514;28;20060;-89
2022/09/17 20:10:09;;;;;;;0.95;0.60;;;;;;;14.41;100.00;100035.66;5035771;28;20045;-90
2022/09/17 20:12:43;;;;;;;0.88;0.75;;;;;;;14.38;100.00;100028.03;5038792;28;20037;-91
2022/09/17 20:15:15;;;;;;;1.10;0.80;;;;;;;14.32;100.00;100031.44;5035139;28;20068;-89
2022/09/17 20:17:41;;;;;;;2.33;0.95;;;;;;;14.36;100.00;100037.25;5025986;28;20045;-90
2022/09/17 20:20:10;;;;;;;1.02;0.60;;;;;;;14.16;100.00;100044.28;4673497;23;11324778;-90
2022/09/17 20:22:38;;;;;;;2.83;0.93;;;;;;;14.14;100.00;100039.16;5005450;28;20038;-87
2022/09/17 20:25:09;;;;;;;1.50;0.60;;;;;;;14.21;100.00;100039.19;5027250;23;20050;-88